UAL457 EDDK-LSGG
Flight info
| Callsign | UAL457 |
|---|---|
| Flight time | 1h 1m |
| Altitude | 31000 |
| Route | KUMIK1B KUMIK Y854 BOMBI/N0484F300 DCT GIGET DCT ABUKA/N0487F310 DCT BANUX/N0485F300 DCT KRH DCT NATOR/N0488F310 DCT LUTIX DCT BENOT |
| Aircraft | B77W/H-SDE1E2E3FGHIJ2J3J4J5M1RWXY/LB1D1 |
Departure
| Time | 2026-04-21 10:49 |
|---|---|
| Airport | Cologne Bonn Airport (EDDK) |
Arrival
| Time | 2026-04-21 11:50 |
|---|---|
| Airport | Geneva International Airport (LSGG) |
| Time | Latitude | Longitude | Altitude | Speed | Heading |
|---|---|---|---|---|---|
| 2026-04-21 10:21 | 50.87499 | 7.12282 | 237 ft | 0 kts | 208° |
| 2026-04-21 10:37 | 50.87503 | 7.12285 | 237 ft | 2 kts | 210° |
| 2026-04-21 10:37 | 50.87516 | 7.12304 | 237 ft | 3 kts | 230° |
| 2026-04-21 10:37 | 50.87523 | 7.12315 | 237 ft | 1 kts | 221° |
| 2026-04-21 10:38 | 50.87533 | 7.12329 | 237 ft | 3 kts | 204° |
| 2026-04-21 10:38 | 50.87548 | 7.12335 | 237 ft | 3 kts | 146° |
| 2026-04-21 10:38 | 50.87559 | 7.12313 | 237 ft | 3 kts | 115° |
| 2026-04-21 10:38 | 50.87567 | 7.12285 | 237 ft | 2 kts | 116° |
| 2026-04-21 10:39 | 50.87570 | 7.12275 | 237 ft | 0 kts | 117° |
| 2026-04-21 10:42 | 50.87569 | 7.12279 | 237 ft | 2 kts | 117° |
| 2026-04-21 10:42 | 50.87566 | 7.12288 | 237 ft | 1 kts | 118° |
| 2026-04-21 10:43 | 50.87565 | 7.12291 | 237 ft | 1 kts | 119° |
| 2026-04-21 10:43 | 50.87550 | 7.12395 | 237 ft | 14 kts | 69° |
| 2026-04-21 10:43 | 50.87636 | 7.12483 | 237 ft | 17 kts | 20° |
| 2026-04-21 10:43 | 50.87750 | 7.12564 | 237 ft | 19 kts | 42° |
| 2026-04-21 10:44 | 50.87733 | 7.12752 | 237 ft | 21 kts | 135° |
| 2026-04-21 10:44 | 50.87614 | 7.12923 | 237 ft | 25 kts | 139° |
| 2026-04-21 10:44 | 50.87476 | 7.13123 | 237 ft | 29 kts | 137° |
| 2026-04-21 10:44 | 50.87322 | 7.13349 | 237 ft | 32 kts | 137° |
| 2026-04-21 10:45 | 50.87150 | 7.13593 | 243 ft | 33 kts | 137° |
| 2026-04-21 10:45 | 50.86977 | 7.13841 | 250 ft | 34 kts | 138° |
| 2026-04-21 10:45 | 50.86803 | 7.14092 | 260 ft | 34 kts | 140° |
| 2026-04-21 10:45 | 50.86609 | 7.14313 | 266 ft | 35 kts | 137° |
| 2026-04-21 10:46 | 50.86429 | 7.14577 | 275 ft | 35 kts | 137° |
| 2026-04-21 10:46 | 50.86249 | 7.14839 | 285 ft | 35 kts | 137° |
| 2026-04-21 10:46 | 50.86071 | 7.15097 | 298 ft | 36 kts | 137° |
| 2026-04-21 10:46 | 50.85885 | 7.15368 | 304 ft | 37 kts | 137° |
| 2026-04-21 10:47 | 50.85694 | 7.15645 | 308 ft | 38 kts | 139° |
| 2026-04-21 10:47 | 50.85497 | 7.15926 | 315 ft | 38 kts | 137° |
| 2026-04-21 10:47 | 50.85340 | 7.16200 | 314 ft | 32 kts | 109° |
| 2026-04-21 10:47 | 50.85423 | 7.16485 | 315 ft | 30 kts | 27° |
| 2026-04-21 10:48 | 50.85600 | 7.16452 | 315 ft | 9 kts | 316° |
| 2026-04-21 10:48 | 50.85611 | 7.16435 | 315 ft | 3 kts | 316° |
| 2026-04-21 10:48 | 50.85709 | 7.16289 | 314 ft | 61 kts | 317° |
| 2026-04-21 10:48 | 50.86379 | 7.15321 | 334 ft | 194 kts | 318° |
| 2026-04-21 10:49 | 50.87515 | 7.13721 | 1750 ft | 222 kts | 321° |
| 2026-04-21 10:49 | 50.88628 | 7.12182 | 3531 ft | 203 kts | 326° |
| 2026-04-21 10:49 | 50.89898 | 7.11277 | 4252 ft | 209 kts | 0° |
| 2026-04-21 10:49 | 50.91355 | 7.11860 | 4565 ft | 229 kts | 31° |
| 2026-04-21 10:50 | 50.92793 | 7.13171 | 5057 ft | 247 kts | 35° |
| 2026-04-21 10:50 | 50.93954 | 7.15188 | 5869 ft | 248 kts | 63° |
| 2026-04-21 10:50 | 50.94697 | 7.17662 | 6766 ft | 254 kts | 64° |
| 2026-04-21 10:50 | 50.95497 | 7.20220 | 7759 ft | 258 kts | 64° |
| 2026-04-21 10:51 | 50.96299 | 7.22761 | 8789 ft | 261 kts | 64° |
| 2026-04-21 10:51 | 50.97120 | 7.25361 | 9832 ft | 264 kts | 64° |
| 2026-04-21 10:51 | 50.97957 | 7.28012 | 10731 ft | 272 kts | 64° |
| 2026-04-21 10:51 | 50.98830 | 7.30783 | 11159 ft | 298 kts | 64° |
| 2026-04-21 10:52 | 50.99810 | 7.33893 | 11414 ft | 331 kts | 64° |
| 2026-04-21 10:52 | 51.00877 | 7.37282 | 12008 ft | 349 kts | 64° |
| 2026-04-21 10:52 | 51.01660 | 7.40914 | 12775 ft | 359 kts | 82° |
| 2026-04-21 10:52 | 51.01599 | 7.44909 | 13987 ft | 365 kts | 99° |
| 2026-04-21 10:53 | 51.00912 | 7.48813 | 14989 ft | 371 kts | 106° |
| 2026-04-21 10:53 | 51.00100 | 7.52792 | 15900 ft | 381 kts | 106° |
| 2026-04-21 10:53 | 50.99275 | 7.56803 | 16913 ft | 388 kts | 106° |
| 2026-04-21 10:53 | 50.98440 | 7.60919 | 17957 ft | 394 kts | 106° |
| 2026-04-21 10:54 | 50.97601 | 7.65112 | 18915 ft | 402 kts | 105° |
| 2026-04-21 10:54 | 50.96756 | 7.69379 | 19790 ft | 408 kts | 105° |
| 2026-04-21 10:54 | 50.95900 | 7.73723 | 20661 ft | 414 kts | 105° |
| 2026-04-21 10:54 | 50.95032 | 7.78118 | 21498 ft | 421 kts | 105° |
| 2026-04-21 10:55 | 50.94092 | 7.82512 | 22337 ft | 428 kts | 111° |
| 2026-04-21 10:55 | 50.92588 | 7.86668 | 23152 ft | 438 kts | 122° |
| 2026-04-21 10:55 | 50.90808 | 7.90599 | 23931 ft | 444 kts | 123° |
| 2026-04-21 10:55 | 50.89026 | 7.94604 | 24569 ft | 450 kts | 123° |
| 2026-04-21 10:56 | 50.87266 | 7.98729 | 25238 ft | 455 kts | 122° |
| 2026-04-21 10:56 | 50.85510 | 8.02935 | 25861 ft | 461 kts | 122° |
| 2026-04-21 10:56 | 50.83629 | 8.07104 | 26359 ft | 469 kts | 129° |
| 2026-04-21 10:56 | 50.81115 | 8.10462 | 26870 ft | 476 kts | 146° |
| 2026-04-21 10:57 | 50.78269 | 8.13198 | 27413 ft | 482 kts | 148° |
| 2026-04-21 10:57 | 50.75397 | 8.15902 | 28001 ft | 487 kts | 147° |
| 2026-04-21 10:57 | 50.72475 | 8.18698 | 28620 ft | 490 kts | 147° |
| 2026-04-21 10:57 | 50.69560 | 8.21546 | 29211 ft | 493 kts | 147° |
| 2026-04-21 10:58 | 50.66651 | 8.24435 | 29932 ft | 494 kts | 146° |
| 2026-04-21 10:58 | 50.63756 | 8.27335 | 30653 ft | 492 kts | 146° |
| 2026-04-21 10:58 | 50.60904 | 8.30199 | 31213 ft | 494 kts | 146° |
| 2026-04-21 10:59 | 50.55062 | 8.36052 | 31239 ft | 494 kts | 147° |
| 2026-04-21 10:59 | 50.49297 | 8.41796 | 31250 ft | 490 kts | 147° |
| 2026-04-21 11:00 | 50.43541 | 8.47514 | 31239 ft | 491 kts | 147° |
| 2026-04-21 11:00 | 50.37720 | 8.53257 | 31231 ft | 492 kts | 148° |
| 2026-04-21 11:01 | 50.31722 | 8.58377 | 31227 ft | 493 kts | 152° |
| 2026-04-21 11:01 | 50.25643 | 8.63401 | 31217 ft | 494 kts | 152° |
| 2026-04-21 11:02 | 50.16593 | 8.70945 | 31213 ft | 494 kts | 152° |
| 2026-04-21 11:02 | 50.10492 | 8.76014 | 31209 ft | 493 kts | 153° |
| 2026-04-21 11:03 | 50.07349 | 8.77994 | 31204 ft | 493 kts | 165° |
| 2026-04-21 11:03 | 50.03964 | 8.79008 | 31219 ft | 493 kts | 175° |
| 2026-04-21 11:03 | 49.97179 | 8.78461 | 31217 ft | 490 kts | 190° |
| 2026-04-21 11:04 | 49.90439 | 8.76889 | 31189 ft | 491 kts | 189° |
| 2026-04-21 11:04 | 49.83655 | 8.75448 | 31188 ft | 491 kts | 189° |
| 2026-04-21 11:05 | 49.76907 | 8.74082 | 31190 ft | 491 kts | 189° |
| 2026-04-21 11:05 | 49.70138 | 8.72709 | 31194 ft | 491 kts | 189° |
| 2026-04-21 11:06 | 49.63367 | 8.71328 | 31195 ft | 491 kts | 189° |
| 2026-04-21 11:06 | 49.56577 | 8.69943 | 31206 ft | 490 kts | 189° |
| 2026-04-21 11:07 | 49.49841 | 8.68577 | 31212 ft | 490 kts | 189° |
| 2026-04-21 11:07 | 49.43039 | 8.67651 | 31208 ft | 491 kts | 182° |
| 2026-04-21 11:08 | 49.36220 | 8.67487 | 31200 ft | 492 kts | 183° |
| 2026-04-21 11:08 | 49.29353 | 8.67278 | 31200 ft | 492 kts | 184° |
| 2026-04-21 11:09 | 49.22514 | 8.67025 | 31184 ft | 493 kts | 184° |
| 2026-04-21 11:09 | 49.15665 | 8.66744 | 31164 ft | 493 kts | 187° |
| 2026-04-21 11:10 | 49.08952 | 8.64864 | 31175 ft | 487 kts | 200° |
| 2026-04-21 11:10 | 49.02760 | 8.60958 | 31173 ft | 482 kts | 210° |
| 2026-04-21 11:11 | 48.96432 | 8.57293 | 31153 ft | 491 kts | 198° |
| 2026-04-21 11:11 | 48.89738 | 8.55199 | 31151 ft | 493 kts | 196° |
| 2026-04-21 11:12 | 48.83009 | 8.53117 | 31160 ft | 493 kts | 196° |
| 2026-04-21 11:12 | 48.76272 | 8.50970 | 31136 ft | 493 kts | 198° |
| 2026-04-21 11:13 | 48.69588 | 8.48818 | 31148 ft | 493 kts | 198° |
| 2026-04-21 11:13 | 48.62891 | 8.46664 | 31145 ft | 494 kts | 198° |
| 2026-04-21 11:14 | 48.56170 | 8.44513 | 31135 ft | 493 kts | 198° |
| 2026-04-21 11:14 | 48.49446 | 8.42368 | 31143 ft | 493 kts | 198° |
| 2026-04-21 11:15 | 48.42710 | 8.40226 | 31136 ft | 493 kts | 198° |
| 2026-04-21 11:15 | 48.36023 | 8.38106 | 31143 ft | 494 kts | 198° |
| 2026-04-21 11:16 | 48.29274 | 8.35969 | 31113 ft | 494 kts | 198° |
| 2026-04-21 11:16 | 48.22527 | 8.33839 | 31117 ft | 494 kts | 199° |
| 2026-04-21 11:17 | 48.16123 | 8.30644 | 31116 ft | 482 kts | 211° |
| 2026-04-21 11:17 | 48.10358 | 8.25842 | 31113 ft | 472 kts | 220° |
| 2026-04-21 11:18 | 48.04844 | 8.20440 | 31109 ft | 472 kts | 220° |
| 2026-04-21 11:18 | 47.99342 | 8.15104 | 31106 ft | 472 kts | 220° |
| 2026-04-21 11:19 | 47.93823 | 8.09804 | 31061 ft | 473 kts | 220° |
| 2026-04-21 11:19 | 47.88293 | 8.04525 | 31087 ft | 470 kts | 221° |
| 2026-04-21 11:20 | 47.82822 | 7.99312 | 31084 ft | 468 kts | 221° |
| 2026-04-21 11:20 | 47.77312 | 7.94073 | 31086 ft | 469 kts | 221° |
| 2026-04-21 11:21 | 47.71809 | 7.88848 | 31071 ft | 468 kts | 221° |
| 2026-04-21 11:21 | 47.66334 | 7.83664 | 31085 ft | 468 kts | 221° |
| 2026-04-21 11:22 | 47.60782 | 7.78552 | 31103 ft | 469 kts | 220° |
| 2026-04-21 11:22 | 47.55305 | 7.73445 | 31106 ft | 466 kts | 222° |
| 2026-04-21 11:23 | 47.50774 | 7.69079 | 31094 ft | 466 kts | 222° |
| 2026-04-21 11:23 | 47.45289 | 7.63872 | 31100 ft | 467 kts | 222° |
| 2026-04-21 11:24 | 47.39799 | 7.58734 | 31094 ft | 469 kts | 221° |
| 2026-04-21 11:24 | 47.34272 | 7.53589 | 31045 ft | 469 kts | 221° |
| 2026-04-21 11:25 | 47.28780 | 7.48479 | 31065 ft | 469 kts | 221° |
| 2026-04-21 11:25 | 47.23220 | 7.43309 | 31031 ft | 470 kts | 221° |
| 2026-04-21 11:26 | 47.17897 | 7.37998 | 31081 ft | 460 kts | 229° |
| 2026-04-21 11:26 | 47.13396 | 7.31498 | 31063 ft | 449 kts | 239° |
| 2026-04-21 11:27 | 47.09566 | 7.24289 | 31062 ft | 448 kts | 240° |
| 2026-04-21 11:27 | 47.05697 | 7.17099 | 31064 ft | 450 kts | 240° |
| 2026-04-21 11:28 | 47.01794 | 7.09959 | 31060 ft | 451 kts | 239° |
| 2026-04-21 11:28 | 46.99809 | 7.06339 | 30547 ft | 457 kts | 239° |
| 2026-04-21 11:28 | 46.97790 | 7.02650 | 29496 ft | 463 kts | 239° |
| 2026-04-21 11:29 | 46.95808 | 6.99047 | 28696 ft | 456 kts | 239° |
| 2026-04-21 11:29 | 46.93833 | 6.95465 | 28012 ft | 447 kts | 239° |
| 2026-04-21 11:29 | 46.91896 | 6.91950 | 27348 ft | 440 kts | 239° |
| 2026-04-21 11:29 | 46.89883 | 6.88571 | 26685 ft | 439 kts | 234° |
| 2026-04-21 11:30 | 46.87794 | 6.85417 | 26022 ft | 434 kts | 234° |
| 2026-04-21 11:30 | 46.85690 | 6.82263 | 25361 ft | 430 kts | 234° |
| 2026-04-21 11:30 | 46.83615 | 6.79150 | 24713 ft | 426 kts | 234° |
| 2026-04-21 11:30 | 46.81555 | 6.76050 | 24064 ft | 422 kts | 234° |
| 2026-04-21 11:31 | 46.79507 | 6.72961 | 23373 ft | 420 kts | 234° |
| 2026-04-21 11:31 | 46.77504 | 6.69934 | 22624 ft | 417 kts | 234° |
| 2026-04-21 11:31 | 46.75491 | 6.66897 | 21990 ft | 413 kts | 233° |
| 2026-04-21 11:31 | 46.73493 | 6.63885 | 21356 ft | 409 kts | 233° |
| 2026-04-21 11:32 | 46.71537 | 6.60939 | 20715 ft | 407 kts | 233° |
| 2026-04-21 11:32 | 46.69572 | 6.57982 | 20099 ft | 405 kts | 232° |
| 2026-04-21 11:32 | 46.67611 | 6.55034 | 19476 ft | 403 kts | 232° |
| 2026-04-21 11:32 | 46.65658 | 6.52102 | 18860 ft | 401 kts | 231° |
| 2026-04-21 11:33 | 46.63717 | 6.49192 | 18225 ft | 400 kts | 231° |
| 2026-04-21 11:33 | 46.61797 | 6.46315 | 17506 ft | 399 kts | 231° |
| 2026-04-21 11:33 | 46.59858 | 6.43414 | 16876 ft | 396 kts | 230° |
| 2026-04-21 11:33 | 46.57932 | 6.40534 | 16259 ft | 394 kts | 230° |
| 2026-04-21 11:34 | 46.56025 | 6.37687 | 15645 ft | 392 kts | 230° |
| 2026-04-21 11:34 | 46.54148 | 6.34889 | 15047 ft | 391 kts | 230° |
| 2026-04-21 11:34 | 46.52259 | 6.32088 | 14773 ft | 380 kts | 229° |
| 2026-04-21 11:34 | 46.50418 | 6.29372 | 14516 ft | 373 kts | 229° |
| 2026-04-21 11:35 | 46.48625 | 6.26728 | 14243 ft | 371 kts | 229° |
| 2026-04-21 11:35 | 46.46801 | 6.24035 | 13996 ft | 374 kts | 229° |
| 2026-04-21 11:35 | 46.44970 | 6.21331 | 13720 ft | 376 kts | 229° |
| 2026-04-21 11:35 | 46.43145 | 6.18642 | 13425 ft | 375 kts | 229° |
| 2026-04-21 11:36 | 46.41326 | 6.15968 | 13146 ft | 372 kts | 229° |
| 2026-04-21 11:36 | 46.39505 | 6.13294 | 12889 ft | 369 kts | 228° |
| 2026-04-21 11:36 | 46.37705 | 6.10651 | 12622 ft | 367 kts | 227° |
| 2026-04-21 11:36 | 46.35934 | 6.08052 | 12380 ft | 365 kts | 228° |
| 2026-04-21 11:37 | 46.34151 | 6.05438 | 12129 ft | 364 kts | 227° |
| 2026-04-21 11:37 | 46.32354 | 6.02811 | 11845 ft | 364 kts | 227° |
| 2026-04-21 11:37 | 46.30575 | 6.00212 | 11635 ft | 364 kts | 227° |
| 2026-04-21 11:37 | 46.28820 | 5.97652 | 11400 ft | 356 kts | 227° |
| 2026-04-21 11:38 | 46.27097 | 5.95136 | 11132 ft | 346 kts | 228° |
| 2026-04-21 11:38 | 46.25435 | 5.92712 | 10896 ft | 339 kts | 227° |
| 2026-04-21 11:38 | 46.23779 | 5.90302 | 10639 ft | 332 kts | 227° |
| 2026-04-21 11:38 | 46.22164 | 5.87949 | 10406 ft | 324 kts | 227° |
| 2026-04-21 11:39 | 46.20608 | 5.85687 | 10186 ft | 317 kts | 227° |
| 2026-04-21 11:39 | 46.19064 | 5.83443 | 9973 ft | 310 kts | 227° |
| 2026-04-21 11:39 | 46.17571 | 5.81279 | 9885 ft | 297 kts | 227° |
| 2026-04-21 11:39 | 46.16132 | 5.79192 | 9739 ft | 288 kts | 228° |
| 2026-04-21 11:40 | 46.14750 | 5.77189 | 9475 ft | 284 kts | 227° |
| 2026-04-21 11:40 | 46.13357 | 5.75168 | 9162 ft | 281 kts | 227° |
| 2026-04-21 11:40 | 46.11983 | 5.73180 | 8915 ft | 277 kts | 227° |
| 2026-04-21 11:40 | 46.10645 | 5.71242 | 8723 ft | 275 kts | 227° |
| 2026-04-21 11:41 | 46.09299 | 5.69325 | 8512 ft | 274 kts | 224° |
| 2026-04-21 11:41 | 46.07618 | 5.68029 | 8250 ft | 279 kts | 194° |
| 2026-04-21 11:41 | 46.05677 | 5.68011 | 8077 ft | 280 kts | 167° |
| 2026-04-21 11:41 | 46.03940 | 5.69185 | 7844 ft | 276 kts | 140° |
| 2026-04-21 11:42 | 46.02747 | 5.71260 | 7691 ft | 269 kts | 116° |
| 2026-04-21 11:42 | 46.02210 | 5.73727 | 7416 ft | 249 kts | 93° |
| 2026-04-21 11:42 | 46.02262 | 5.76100 | 7187 ft | 226 kts | 84° |
| 2026-04-21 11:42 | 46.02379 | 5.78253 | 7022 ft | 210 kts | 77° |
| 2026-04-21 11:43 | 46.02960 | 5.80095 | 6765 ft | 196 kts | 47° |
| 2026-04-21 11:43 | 46.03858 | 5.81548 | 6665 ft | 194 kts | 46° |
| 2026-04-21 11:43 | 46.04753 | 5.82956 | 6471 ft | 194 kts | 45° |
| 2026-04-21 11:43 | 46.05707 | 5.84393 | 6171 ft | 199 kts | 45° |
| 2026-04-21 11:44 | 46.06661 | 5.85802 | 5893 ft | 196 kts | 44° |
| 2026-04-21 11:44 | 46.07616 | 5.87198 | 5631 ft | 194 kts | 44° |
| 2026-04-21 11:44 | 46.08566 | 5.88585 | 5421 ft | 197 kts | 44° |
| 2026-04-21 11:44 | 46.09548 | 5.90013 | 5109 ft | 200 kts | 44° |
| 2026-04-21 11:45 | 46.10500 | 5.91440 | 4920 ft | 196 kts | 43° |
| 2026-04-21 11:45 | 46.11448 | 5.92809 | 4656 ft | 189 kts | 44° |
| 2026-04-21 11:45 | 46.12392 | 5.94180 | 4372 ft | 194 kts | 43° |
| 2026-04-21 11:45 | 46.13331 | 5.95550 | 4113 ft | 193 kts | 44° |
| 2026-04-21 11:46 | 46.14262 | 5.96915 | 3853 ft | 186 kts | 44° |
| 2026-04-21 11:46 | 46.15146 | 5.98223 | 3610 ft | 178 kts | 44° |
| 2026-04-21 11:46 | 46.15983 | 5.99432 | 3379 ft | 161 kts | 44° |
| 2026-04-21 11:46 | 46.16726 | 6.00523 | 3166 ft | 142 kts | 44° |
| 2026-04-21 11:47 | 46.17383 | 6.01473 | 2966 ft | 130 kts | 44° |
| 2026-04-21 11:47 | 46.18043 | 6.02448 | 2811 ft | 139 kts | 45° |
| 2026-04-21 11:47 | 46.18729 | 6.03455 | 2600 ft | 144 kts | 44° |
| 2026-04-21 11:47 | 46.19405 | 6.04448 | 2417 ft | 137 kts | 46° |
| 2026-04-21 11:48 | 46.20069 | 6.05421 | 2221 ft | 135 kts | 46° |
| 2026-04-21 11:48 | 46.20719 | 6.06372 | 2023 ft | 134 kts | 45° |
| 2026-04-21 11:48 | 46.21378 | 6.07343 | 1846 ft | 134 kts | 45° |
| 2026-04-21 11:48 | 46.22026 | 6.08293 | 1678 ft | 133 kts | 45° |
| 2026-04-21 11:49 | 46.22680 | 6.09253 | 1480 ft | 134 kts | 45° |
| 2026-04-21 11:49 | 46.23310 | 6.10177 | 1419 ft | 120 kts | 45° |
| 2026-04-21 11:49 | 46.23816 | 6.10918 | 1383 ft | 83 kts | 45° |
| 2026-04-21 11:49 | 46.24140 | 6.11387 | 1376 ft | 59 kts | 45° |
| 2026-04-21 11:50 | 46.24317 | 6.11760 | 1373 ft | 21 kts | 73° |
| 2026-04-21 11:50 | 46.24294 | 6.11925 | 1375 ft | 13 kts | 168° |
| 2026-04-21 11:50 | 46.24226 | 6.11848 | 1376 ft | 13 kts | 227° |
| 2026-04-21 11:50 | 46.24155 | 6.11741 | 1377 ft | 15 kts | 222° |
| 2026-04-21 11:51 | 46.24078 | 6.11640 | 1376 ft | 15 kts | 224° |
| 2026-04-21 11:51 | 46.23983 | 6.11505 | 1378 ft | 25 kts | 224° |
| 2026-04-21 11:51 | 46.23860 | 6.11331 | 1381 ft | 25 kts | 224° |
| 2026-04-21 11:51 | 46.23747 | 6.11145 | 1385 ft | 25 kts | 227° |
| 2026-04-21 11:52 | 46.23647 | 6.11086 | 1383 ft | 11 kts | 132° |
| 2026-04-21 11:52 | 46.23594 | 6.11171 | 1385 ft | 12 kts | 134° |
| 2026-04-21 11:52 | 46.23545 | 6.11243 | 1384 ft | 7 kts | 135° |
| 2026-04-21 11:52 | 46.23539 | 6.11251 | 1384 ft | 0 kts | 135° |